sensor_id;sensor_type;location;lat;lon;timestamp;P1;durP1;ratioP1;P2;durP2;ratioP2
22571;SDS011;11452;53.368;14.658;2024-01-11T00:05:00;16.00;;;8.33;;
22571;SDS011;11452;53.368;14.658;2024-01-11T00:10:07;20.47;;;9.97;;
22571;SDS011;11452;53.368;14.658;2024-01-11T00:15:13;16.17;;;8.50;;
22571;SDS011;11452;53.368;14.658;2024-01-11T00:20:19;14.30;;;7.30;;
22571;SDS011;11452;53.368;14.658;2024-01-11T00:25:24;22.73;;;8.80;;
22571;SDS011;11452;53.368;14.658;2024-01-11T00:30:30;15.80;;;7.97;;
22571;SDS011;11452;53.368;14.658;2024-01-11T00:35:36;15.43;;;8.63;;
22571;SDS011;11452;53.368;14.658;2024-01-11T00:40:42;15.03;;;8.67;;
22571;SDS011;11452;53.368;14.658;2024-01-11T00:45:47;14.40;;;7.07;;
22571;SDS011;11452;53.368;14.658;2024-01-11T00:50:53;16.57;;;9.87;;
22571;SDS011;11452;53.368;14.658;2024-01-11T00:56:02;14.50;;;7.90;;
22571;SDS011;11452;53.368;14.658;2024-01-11T01:01:11;15.83;;;8.17;;
22571;SDS011;11452;53.368;14.658;2024-01-11T01:06:17;16.57;;;8.60;;
22571;SDS011;11452;53.368;14.658;2024-01-11T01:11:23;14.73;;;9.07;;
22571;SDS011;11452;53.368;14.658;2024-01-11T01:16:29;16.23;;;8.60;;
22571;SDS011;11452;53.368;14.658;2024-01-11T01:21:35;16.47;;;9.27;;
22571;SDS011;11452;53.368;14.658;2024-01-11T01:26:40;17.03;;;8.47;;
22571;SDS011;11452;53.368;14.658;2024-01-11T01:31:46;17.07;;;8.50;;
22571;SDS011;11452;53.368;14.658;2024-01-11T01:36:52;17.70;;;9.83;;
22571;SDS011;11452;53.368;14.658;2024-01-11T01:41:58;15.17;;;8.17;;
22571;SDS011;11452;53.368;14.658;2024-01-11T01:47:03;15.07;;;8.60;;
22571;SDS011;11452;53.368;14.658;2024-01-11T01:52:10;18.90;;;9.70;;
22571;SDS011;11452;53.368;14.658;2024-01-11T01:57:18;15.97;;;8.80;;
22571;SDS011;11452;53.368;14.658;2024-01-11T02:02:24;13.40;;;7.60;;
22571;SDS011;11452;53.368;14.658;2024-01-11T02:07:32;14.20;;;8.20;;
22571;SDS011;11452;53.368;14.658;2024-01-11T02:12:38;18.70;;;9.07;;
22571;SDS011;11452;53.368;14.658;2024-01-11T02:17:45;15.47;;;8.23;;
22571;SDS011;11452;53.368;14.658;2024-01-11T02:22:53;14.60;;;7.87;;
22571;SDS011;11452;53.368;14.658;2024-01-11T02:28:00;12.83;;;8.23;;
22571;SDS011;11452;53.368;14.658;2024-01-11T02:33:06;16.23;;;8.93;;
22571;SDS011;11452;53.368;14.658;2024-01-11T02:38:12;11.47;;;6.50;;
22571;SDS011;11452;53.368;14.658;2024-01-11T02:43:18;12.30;;;8.00;;
22571;SDS011;11452;53.368;14.658;2024-01-11T02:48:28;13.20;;;6.47;;
22571;SDS011;11452;53.368;14.658;2024-01-11T02:53:34;12.07;;;6.57;;
22571;SDS011;11452;53.368;14.658;2024-01-11T02:58:40;13.80;;;7.57;;
22571;SDS011;11452;53.368;14.658;2024-01-11T03:03:45;14.10;;;8.30;;
22571;SDS011;11452;53.368;14.658;2024-01-11T03:08:53;13.20;;;8.13;;
22571;SDS011;11452;53.368;14.658;2024-01-11T03:13:59;13.93;;;7.53;;
22571;SDS011;11452;53.368;14.658;2024-01-11T03:19:07;15.50;;;8.63;;
22571;SDS011;11452;53.368;14.658;2024-01-11T03:24:13;14.60;;;7.53;;
22571;SDS011;11452;53.368;14.658;2024-01-11T03:29:18;14.20;;;7.63;;
22571;SDS011;11452;53.368;14.658;2024-01-11T03:34:25;12.80;;;7.23;;
22571;SDS011;11452;53.368;14.658;2024-01-11T03:39:31;14.80;;;7.80;;
22571;SDS011;11452;53.368;14.658;2024-01-11T03:44:37;13.60;;;7.10;;
22571;SDS011;11452;53.368;14.658;2024-01-11T03:49:43;13.20;;;7.10;;
22571;SDS011;11452;53.368;14.658;2024-01-11T03:54:49;15.30;;;8.07;;
22571;SDS011;11452;53.368;14.658;2024-01-11T03:59:55;16.77;;;9.07;;
22571;SDS011;11452;53.368;14.658;2024-01-11T04:05:03;16.50;;;8.27;;
22571;SDS011;11452;53.368;14.658;2024-01-11T04:10:09;18.00;;;9.37;;
22571;SDS011;11452;53.368;14.658;2024-01-11T04:15:15;17.93;;;11.10;;
22571;SDS011;11452;53.368;14.658;2024-01-11T04:20:21;15.67;;;9.53;;
22571;SDS011;11452;53.368;14.658;2024-01-11T04:25:28;19.03;;;9.93;;
22571;SDS011;11452;53.368;14.658;2024-01-11T04:30:34;14.80;;;8.67;;
22571;SDS011;11452;53.368;14.658;2024-01-11T04:35:40;14.13;;;8.67;;
22571;SDS011;11452;53.368;14.658;2024-01-11T04:40:46;15.67;;;9.20;;
22571;SDS011;11452;53.368;14.658;2024-01-11T04:45:52;16.07;;;8.83;;
22571;SDS011;11452;53.368;14.658;2024-01-11T04:50:57;17.10;;;9.90;;
22571;SDS011;11452;53.368;14.658;2024-01-11T04:56:03;14.40;;;8.20;;
22571;SDS011;11452;53.368;14.658;2024-01-11T05:01:13;18.90;;;9.00;;
22571;SDS011;11452;53.368;14.658;2024-01-11T05:06:21;18.87;;;9.40;;
22571;SDS011;11452;53.368;14.658;2024-01-11T05:11:28;16.43;;;8.80;;
22571;SDS011;11452;53.368;14.658;2024-01-11T05:16:34;17.10;;;8.33;;
22571;SDS011;11452;53.368;14.658;2024-01-11T05:21:40;17.43;;;9.37;;
22571;SDS011;11452;53.368;14.658;2024-01-11T05:26:45;17.27;;;9.93;;
22571;SDS011;11452;53.368;14.658;2024-01-11T05:31:52;16.80;;;9.67;;
22571;SDS011;11452;53.368;14.658;2024-01-11T05:36:58;18.10;;;9.83;;
22571;SDS011;11452;53.368;14.658;2024-01-11T05:42:04;20.33;;;11.47;;
22571;SDS011;11452;53.368;14.658;2024-01-11T05:47:10;22.67;;;11.90;;
22571;SDS011;11452;53.368;14.658;2024-01-11T05:52:16;18.53;;;10.60;;
22571;SDS011;11452;53.368;14.658;2024-01-11T05:57:24;22.07;;;10.13;;
22571;SDS011;11452;53.368;14.658;2024-01-11T06:02:30;18.67;;;9.77;;
22571;SDS011;11452;53.368;14.658;2024-01-11T06:07:36;23.73;;;12.43;;
22571;SDS011;11452;53.368;14.658;2024-01-11T06:12:42;21.77;;;11.83;;
22571;SDS011;11452;53.368;14.658;2024-01-11T06:17:48;23.67;;;12.03;;
22571;SDS011;11452;53.368;14.658;2024-01-11T06:22:54;27.33;;;12.80;;
22571;SDS011;11452;53.368;14.658;2024-01-11T06:28:00;28.70;;;12.87;;
22571;SDS011;11452;53.368;14.658;2024-01-11T06:33:07;31.17;;;14.40;;
22571;SDS011;11452;53.368;14.658;2024-01-11T06:38:13;36.20;;;15.97;;
22571;SDS011;11452;53.368;14.658;2024-01-11T06:43:19;29.27;;;13.57;;
22571;SDS011;11452;53.368;14.658;2024-01-11T06:48:25;30.27;;;15.10;;
22571;SDS011;11452;53.368;14.658;2024-01-11T06:53:31;34.43;;;17.00;;
22571;SDS011;11452;53.368;14.658;2024-01-11T06:58:37;38.23;;;17.03;;
22571;SDS011;11452;53.368;14.658;2024-01-11T07:03:43;44.23;;;19.63;;
22571;SDS011;11452;53.368;14.658;2024-01-11T07:08:49;37.13;;;16.60;;
22571;SDS011;11452;53.368;14.658;2024-01-11T07:13:55;41.13;;;18.77;;
22571;SDS011;11452;53.368;14.658;2024-01-11T07:19:01;42.60;;;18.80;;
22571;SDS011;11452;53.368;14.658;2024-01-11T07:24:07;40.07;;;18.73;;
22571;SDS011;11452;53.368;14.658;2024-01-11T07:29:13;39.77;;;17.93;;
22571;SDS011;11452;53.368;14.658;2024-01-11T07:34:19;38.70;;;18.27;;
22571;SDS011;11452;53.368;14.658;2024-01-11T07:39:25;42.07;;;20.73;;
22571;SDS011;11452;53.368;14.658;2024-01-11T07:44:31;34.50;;;19.70;;
22571;SDS011;11452;53.368;14.658;2024-01-11T07:49:37;40.20;;;19.30;;
22571;SDS011;11452;53.368;14.658;2024-01-11T07:54:43;34.63;;;17.23;;
22571;SDS011;11452;53.368;14.658;2024-01-11T07:59:49;41.40;;;18.83;;
22571;SDS011;11452;53.368;14.658;2024-01-11T08:04:55;36.03;;;18.33;;
22571;SDS011;11452;53.368;14.658;2024-01-11T08:10:02;40.50;;;18.40;;
22571;SDS011;11452;53.368;14.658;2024-01-11T08:15:10;39.50;;;19.67;;
22571;SDS011;11452;53.368;14.658;2024-01-11T08:20:16;36.13;;;17.20;;
22571;SDS011;11452;53.368;14.658;2024-01-11T08:25:23;37.97;;;17.57;;
22571;SDS011;11452;53.368;14.658;2024-01-11T08:30:29;35.17;;;17.97;;
22571;SDS011;11452;53.368;14.658;2024-01-11T08:35:35;34.27;;;17.73;;
22571;SDS011;11452;53.368;14.658;2024-01-11T08:40:42;31.10;;;17.17;;
22571;SDS011;11452;53.368;14.658;2024-01-11T08:45:48;30.90;;;16.07;;
22571;SDS011;11452;53.368;14.658;2024-01-11T08:50:54;30.93;;;15.70;;
22571;SDS011;11452;53.368;14.658;2024-01-11T08:56:00;29.37;;;16.50;;
22571;SDS011;11452;53.368;14.658;2024-01-11T09:01:06;33.77;;;16.50;;
22571;SDS011;11452;53.368;14.658;2024-01-11T09:06:13;27.67;;;15.00;;
22571;SDS011;11452;53.368;14.658;2024-01-11T09:11:19;28.80;;;14.77;;
22571;SDS011;11452;53.368;14.658;2024-01-11T09:16:26;29.17;;;15.23;;
22571;SDS011;11452;53.368;14.658;2024-01-11T09:21:31;26.37;;;13.67;;
22571;SDS011;11452;53.368;14.658;2024-01-11T09:26:37;24.93;;;14.50;;
22571;SDS011;11452;53.368;14.658;2024-01-11T09:31:43;25.87;;;14.83;;
22571;SDS011;11452;53.368;14.658;2024-01-11T09:36:49;23.60;;;12.90;;
22571;SDS011;11452;53.368;14.658;2024-01-11T09:42:07;25.23;;;12.97;;
22571;SDS011;11452;53.368;14.658;2024-01-11T09:47:08;26.40;;;14.37;;
22571;SDS011;11452;53.368;14.658;2024-01-11T09:52:19;21.77;;;11.93;;
22571;SDS011;11452;53.368;14.658;2024-01-11T09:57:31;24.00;;;12.83;;
22571;SDS011;11452;53.368;14.658;2024-01-11T10:02:37;20.37;;;12.23;;
22571;SDS011;11452;53.368;14.658;2024-01-11T10:07:44;24.63;;;13.27;;
22571;SDS011;11452;53.368;14.658;2024-01-11T10:12:53;21.73;;;12.53;;
22571;SDS011;11452;53.368;14.658;2024-01-11T10:17:59;20.53;;;12.10;;
22571;SDS011;11452;53.368;14.658;2024-01-11T10:23:06;24.63;;;12.30;;
22571;SDS011;11452;53.368;14.658;2024-01-11T10:28:13;21.13;;;11.93;;
22571;SDS011;11452;53.368;14.658;2024-01-11T10:33:19;17.50;;;11.40;;
22571;SDS011;11452;53.368;14.658;2024-01-11T10:38:26;17.57;;;11.50;;
22571;SDS011;11452;53.368;14.658;2024-01-11T10:43:36;18.17;;;10.63;;
22571;SDS011;11452;53.368;14.658;2024-01-11T10:48:43;18.20;;;10.83;;
22571;SDS011;11452;53.368;14.658;2024-01-11T10:53:52;21.80;;;11.63;;
22571;SDS011;11452;53.368;14.658;2024-01-11T10:59:01;18.93;;;10.77;;
22571;SDS011;11452;53.368;14.658;2024-01-11T11:04:08;17.97;;;12.00;;
22571;SDS011;11452;53.368;14.658;2024-01-11T11:09:15;20.10;;;12.13;;
22571;SDS011;11452;53.368;14.658;2024-01-11T11:14:23;18.53;;;11.20;;
22571;SDS011;11452;53.368;14.658;2024-01-11T11:19:30;14.73;;;10.00;;
22571;SDS011;11452;53.368;14.658;2024-01-11T11:24:36;15.63;;;9.67;;
22571;SDS011;11452;53.368;14.658;2024-01-11T11:29:46;20.13;;;11.33;;
22571;SDS011;11452;53.368;14.658;2024-01-11T11:34:51;17.60;;;10.60;;
22571;SDS011;11452;53.368;14.658;2024-01-11T11:39:57;15.60;;;9.57;;
22571;SDS011;11452;53.368;14.658;2024-01-11T11:45:05;19.00;;;10.17;;
22571;SDS011;11452;53.368;14.658;2024-01-11T11:50:14;21.60;;;11.27;;
22571;SDS011;11452;53.368;14.658;2024-01-11T11:55:22;17.90;;;9.97;;
22571;SDS011;11452;53.368;14.658;2024-01-11T12:00:29;15.83;;;10.57;;
22571;SDS011;11452;53.368;14.658;2024-01-11T12:05:37;14.77;;;9.50;;
22571;SDS011;11452;53.368;14.658;2024-01-11T12:10:44;16.47;;;9.83;;
22571;SDS011;11452;53.368;14.658;2024-01-11T12:15:50;14.40;;;9.70;;
22571;SDS011;11452;53.368;14.658;2024-01-11T12:20:57;16.03;;;10.07;;
22571;SDS011;11452;53.368;14.658;2024-01-11T12:26:03;16.80;;;9.60;;
22571;SDS011;11452;53.368;14.658;2024-01-11T12:31:11;17.67;;;9.03;;
22571;SDS011;11452;53.368;14.658;2024-01-11T12:36:18;16.23;;;10.70;;
22571;SDS011;11452;53.368;14.658;2024-01-11T12:41:25;20.27;;;10.20;;
22571;SDS011;11452;53.368;14.658;2024-01-11T12:46:31;13.13;;;8.53;;
22571;SDS011;11452;53.368;14.658;2024-01-11T12:51:37;14.03;;;9.27;;
22571;SDS011;11452;53.368;14.658;2024-01-11T12:56:43;15.33;;;9.53;;
22571;SDS011;11452;53.368;14.658;2024-01-11T13:01:49;14.27;;;10.20;;
22571;SDS011;11452;53.368;14.658;2024-01-11T13:06:57;15.13;;;10.73;;
22571;SDS011;11452;53.368;14.658;2024-01-11T13:12:04;20.13;;;11.83;;
22571;SDS011;11452;53.368;14.658;2024-01-11T13:17:11;17.27;;;11.23;;
22571;SDS011;11452;53.368;14.658;2024-01-11T13:22:17;15.43;;;11.13;;
22571;SDS011;11452;53.368;14.658;2024-01-11T13:27:23;13.63;;;9.53;;
22571;SDS011;11452;53.368;14.658;2024-01-11T13:32:29;14.00;;;10.43;;
22571;SDS011;11452;53.368;14.658;2024-01-11T13:37:35;17.13;;;10.77;;
22571;SDS011;11452;53.368;14.658;2024-01-11T13:42:41;14.27;;;9.77;;
22571;SDS011;11452;53.368;14.658;2024-01-11T13:47:47;10.23;;;7.87;;
22571;SDS011;11452;53.368;14.658;2024-01-11T13:52:53;8.93;;;7.00;;
22571;SDS011;11452;53.368;14.658;2024-01-11T13:57:59;13.67;;;9.03;;
22571;SDS011;11452;53.368;14.658;2024-01-11T14:03:05;9.73;;;6.77;;
22571;SDS011;11452;53.368;14.658;2024-01-11T14:08:12;12.60;;;8.47;;
22571;SDS011;11452;53.368;14.658;2024-01-11T14:13:18;8.20;;;6.87;;
22571;SDS011;11452;53.368;14.658;2024-01-11T14:18:24;9.33;;;8.33;;
22571;SDS011;11452;53.368;14.658;2024-01-11T14:23:30;10.40;;;8.47;;
22571;SDS011;11452;53.368;14.658;2024-01-11T14:28:36;11.10;;;9.80;;
22571;SDS011;11452;53.368;14.658;2024-01-11T14:33:43;12.17;;;9.03;;
22571;SDS011;11452;53.368;14.658;2024-01-11T14:38:49;10.50;;;8.10;;
22571;SDS011;11452;53.368;14.658;2024-01-11T14:43:55;10.83;;;8.63;;
22571;SDS011;11452;53.368;14.658;2024-01-11T14:49:01;12.40;;;9.40;;
22571;SDS011;11452;53.368;14.658;2024-01-11T14:54:08;12.23;;;9.93;;
22571;SDS011;11452;53.368;14.658;2024-01-11T14:59:14;12.37;;;9.20;;
22571;SDS011;11452;53.368;14.658;2024-01-11T15:04:20;9.40;;;8.20;;
22571;SDS011;11452;53.368;14.658;2024-01-11T15:09:26;10.27;;;8.47;;
22571;SDS011;11452;53.368;14.658;2024-01-11T15:14:31;9.63;;;7.80;;
22571;SDS011;11452;53.368;14.658;2024-01-11T15:19:37;12.30;;;7.83;;
22571;SDS011;11452;53.368;14.658;2024-01-11T15:24:43;11.53;;;7.70;;
22571;SDS011;11452;53.368;14.658;2024-01-11T15:29:50;11.77;;;7.20;;
22571;SDS011;11452;53.368;14.658;2024-01-11T15:34:56;9.37;;;6.90;;
22571;SDS011;11452;53.368;14.658;2024-01-11T15:40:02;10.57;;;8.97;;
22571;SDS011;11452;53.368;14.658;2024-01-11T15:45:09;13.23;;;9.43;;
22571;SDS011;11452;53.368;14.658;2024-01-11T15:50:15;15.93;;;9.83;;
22571;SDS011;11452;53.368;14.658;2024-01-11T15:55:20;16.60;;;10.47;;
22571;SDS011;11452;53.368;14.658;2024-01-11T16:00:26;13.80;;;10.43;;
22571;SDS011;11452;53.368;14.658;2024-01-11T16:05:34;12.53;;;8.73;;
22571;SDS011;11452;53.368;14.658;2024-01-11T16:10:41;10.80;;;8.33;;
22571;SDS011;11452;53.368;14.658;2024-01-11T16:15:47;15.30;;;9.80;;
22571;SDS011;11452;53.368;14.658;2024-01-11T16:20:54;14.93;;;9.33;;
22571;SDS011;11452;53.368;14.658;2024-01-11T16:26:00;15.03;;;9.07;;
22571;SDS011;11452;53.368;14.658;2024-01-11T16:31:06;12.97;;;9.70;;
22571;SDS011;11452;53.368;14.658;2024-01-11T16:36:12;12.70;;;9.30;;
22571;SDS011;11452;53.368;14.658;2024-01-11T16:41:19;15.37;;;10.50;;
22571;SDS011;11452;53.368;14.658;2024-01-11T16:46:28;15.47;;;10.50;;
22571;SDS011;11452;53.368;14.658;2024-01-11T16:51:41;17.57;;;11.63;;
22571;SDS011;11452;53.368;14.658;2024-01-11T16:56:50;15.97;;;12.53;;
22571;SDS011;11452;53.368;14.658;2024-01-11T17:01:56;16.13;;;11.60;;
22571;SDS011;11452;53.368;14.658;2024-01-11T17:07:02;17.63;;;12.20;;
22571;SDS011;11452;53.368;14.658;2024-01-11T17:12:08;19.03;;;12.47;;
22571;SDS011;11452;53.368;14.658;2024-01-11T17:17:13;18.27;;;12.37;;
22571;SDS011;11452;53.368;14.658;2024-01-11T17:22:19;14.60;;;11.60;;
22571;SDS011;11452;53.368;14.658;2024-01-11T17:27:25;20.63;;;12.53;;
22571;SDS011;11452;53.368;14.658;2024-01-11T17:32:31;19.90;;;11.97;;
22571;SDS011;11452;53.368;14.658;2024-01-11T17:37:39;17.30;;;11.43;;
22571;SDS011;11452;53.368;14.658;2024-01-11T17:42:45;17.43;;;10.93;;
22571;SDS011;11452;53.368;14.658;2024-01-11T17:47:51;15.63;;;11.07;;
22571;SDS011;11452;53.368;14.658;2024-01-11T17:53:00;15.80;;;11.47;;
22571;SDS011;11452;53.368;14.658;2024-01-11T17:58:06;21.93;;;12.10;;
22571;SDS011;11452;53.368;14.658;2024-01-11T18:03:12;16.17;;;11.20;;
22571;SDS011;11452;53.368;14.658;2024-01-11T18:08:19;16.23;;;11.27;;
22571;SDS011;11452;53.368;14.658;2024-01-11T18:13:25;15.03;;;11.30;;
22571;SDS011;11452;53.368;14.658;2024-01-11T18:18:37;20.73;;;14.33;;
22571;SDS011;11452;53.368;14.658;2024-01-11T18:23:39;18.43;;;13.93;;
22571;SDS011;11452;53.368;14.658;2024-01-11T18:28:46;19.07;;;13.37;;
22571;SDS011;11452;53.368;14.658;2024-01-11T18:33:53;18.63;;;13.03;;
22571;SDS011;11452;53.368;14.658;2024-01-11T18:39:01;18.73;;;12.83;;
22571;SDS011;11452;53.368;14.658;2024-01-11T18:44:07;18.47;;;12.03;;
22571;SDS011;11452;53.368;14.658;2024-01-11T18:49:14;14.97;;;10.70;;
22571;SDS011;11452;53.368;14.658;2024-01-11T18:54:21;15.77;;;11.00;;
22571;SDS011;11452;53.368;14.658;2024-01-11T18:59:27;17.50;;;12.00;;
22571;SDS011;11452;53.368;14.658;2024-01-11T19:04:34;21.37;;;12.47;;
22571;SDS011;11452;53.368;14.658;2024-01-11T19:09:40;29.40;;;16.43;;
22571;SDS011;11452;53.368;14.658;2024-01-11T19:14:49;19.87;;;12.60;;
22571;SDS011;11452;53.368;14.658;2024-01-11T19:19:55;13.67;;;9.13;;
22571;SDS011;11452;53.368;14.658;2024-01-11T19:25:02;14.07;;;8.83;;
22571;SDS011;11452;53.368;14.658;2024-01-11T19:30:10;12.70;;;9.00;;
22571;SDS011;11452;53.368;14.658;2024-01-11T19:35:16;16.40;;;10.23;;
22571;SDS011;11452;53.368;14.658;2024-01-11T19:40:23;11.83;;;8.50;;
22571;SDS011;11452;53.368;14.658;2024-01-11T19:45:29;10.77;;;7.20;;
22571;SDS011;11452;53.368;14.658;2024-01-11T19:50:35;11.10;;;7.93;;
22571;SDS011;11452;53.368;14.658;2024-01-11T19:55:41;10.53;;;7.43;;
22571;SDS011;11452;53.368;14.658;2024-01-11T20:00:47;8.93;;;7.20;;
22571;SDS011;11452;53.368;14.658;2024-01-11T20:05:58;10.27;;;6.43;;
22571;SDS011;11452;53.368;14.658;2024-01-11T20:11:05;9.43;;;6.67;;
22571;SDS011;11452;53.368;14.658;2024-01-11T20:16:11;12.90;;;9.40;;
22571;SDS011;11452;53.368;14.658;2024-01-11T20:21:17;9.00;;;7.10;;
22571;SDS011;11452;53.368;14.658;2024-01-11T20:26:23;9.17;;;7.03;;
22571;SDS011;11452;53.368;14.658;2024-01-11T20:31:30;10.13;;;7.13;;
22571;SDS011;11452;53.368;14.658;2024-01-11T20:36:36;9.40;;;7.13;;
22571;SDS011;11452;53.368;14.658;2024-01-11T20:41:43;13.03;;;8.37;;
22571;SDS011;11452;53.368;14.658;2024-01-11T20:46:50;13.73;;;8.37;;
22571;SDS011;11452;53.368;14.658;2024-01-11T20:52:00;12.63;;;7.97;;
22571;SDS011;11452;53.368;14.658;2024-01-11T20:57:06;13.63;;;8.73;;
22571;SDS011;11452;53.368;14.658;2024-01-11T21:02:12;21.53;;;11.40;;
22571;SDS011;11452;53.368;14.658;2024-01-11T21:07:18;18.73;;;11.13;;
22571;SDS011;11452;53.368;14.658;2024-01-11T21:12:24;20.43;;;11.57;;
22571;SDS011;11452;53.368;14.658;2024-01-11T21:17:30;20.93;;;10.43;;
22571;SDS011;11452;53.368;14.658;2024-01-11T21:22:36;12.73;;;8.53;;
22571;SDS011;11452;53.368;14.658;2024-01-11T21:27:42;11.10;;;8.33;;
22571;SDS011;11452;53.368;14.658;2024-01-11T21:32:49;15.40;;;9.00;;
22571;SDS011;11452;53.368;14.658;2024-01-11T21:37:55;9.90;;;7.13;;
22571;SDS011;11452;53.368;14.658;2024-01-11T21:43:01;11.60;;;7.77;;
22571;SDS011;11452;53.368;14.658;2024-01-11T21:48:09;8.47;;;7.00;;
22571;SDS011;11452;53.368;14.658;2024-01-11T21:53:15;11.60;;;8.73;;
22571;SDS011;11452;53.368;14.658;2024-01-11T21:58:21;10.50;;;7.17;;
22571;SDS011;11452;53.368;14.658;2024-01-11T22:03:29;14.70;;;8.27;;
22571;SDS011;11452;53.368;14.658;2024-01-11T22:08:41;19.27;;;10.73;;
22571;SDS011;11452;53.368;14.658;2024-01-11T22:13:47;15.30;;;9.27;;
22571;SDS011;11452;53.368;14.658;2024-01-11T22:18:52;16.30;;;10.20;;
22571;SDS011;11452;53.368;14.658;2024-01-11T22:23:59;16.10;;;10.60;;
22571;SDS011;11452;53.368;14.658;2024-01-11T22:29:05;14.73;;;9.20;;
22571;SDS011;11452;53.368;14.658;2024-01-11T22:34:11;12.43;;;10.20;;
22571;SDS011;11452;53.368;14.658;2024-01-11T22:39:17;13.10;;;7.87;;
22571;SDS011;11452;53.368;14.658;2024-01-11T22:44:23;12.10;;;8.07;;
22571;SDS011;11452;53.368;14.658;2024-01-11T22:49:29;10.10;;;6.93;;
22571;SDS011;11452;53.368;14.658;2024-01-11T22:54:35;10.50;;;6.97;;
22571;SDS011;11452;53.368;14.658;2024-01-11T22:59:42;8.60;;;5.87;;
22571;SDS011;11452;53.368;14.658;2024-01-11T23:04:48;9.07;;;6.27;;
22571;SDS011;11452;53.368;14.658;2024-01-11T23:09:54;9.33;;;6.47;;
22571;SDS011;11452;53.368;14.658;2024-01-11T23:15:01;9.17;;;6.20;;
22571;SDS011;11452;53.368;14.658;2024-01-11T23:20:07;10.17;;;6.20;;
22571;SDS011;11452;53.368;14.658;2024-01-11T23:25:14;10.10;;;7.43;;
22571;SDS011;11452;53.368;14.658;2024-01-11T23:30:19;7.67;;;6.00;;
22571;SDS011;11452;53.368;14.658;2024-01-11T23:35:25;8.80;;;6.40;;
22571;SDS011;11452;53.368;14.658;2024-01-11T23:40:31;8.20;;;5.70;;
22571;SDS011;11452;53.368;14.658;2024-01-11T23:45:37;10.50;;;6.70;;
22571;SDS011;11452;53.368;14.658;2024-01-11T23:50:43;12.07;;;6.43;;
22571;SDS011;11452;53.368;14.658;2024-01-11T23:55:49;10.37;;;6.90;;
